createdAt,value
2018-07-22T00:00:02.660Z,23.91
2018-07-22T00:02:29.954Z,23.87
2018-07-22T00:04:56.920Z,23.84
2018-07-22T00:07:23.870Z,23.80
2018-07-22T00:09:51.430Z,23.78
2018-07-22T00:12:18.429Z,23.74
2018-07-22T00:14:45.461Z,23.72
2018-07-22T00:17:12.760Z,23.67
2018-07-22T00:19:39.663Z,23.65
2018-07-22T00:22:06.633Z,23.63
2018-07-22T00:24:33.921Z,23.60
2018-07-22T00:27:00.872Z,23.58
2018-07-22T00:29:27.968Z,23.56
2018-07-22T00:31:55.161Z,23.53
2018-07-22T00:34:22.124Z,23.52
2018-07-22T00:36:49.045Z,23.52
2018-07-22T00:39:16.606Z,23.50
2018-07-22T00:41:43.567Z,23.49
2018-07-22T00:44:10.534Z,23.46
2018-07-22T00:46:38.008Z,23.44
2018-07-22T00:49:05.013Z,23.43
2018-07-22T00:51:32.054Z,23.35
2018-07-22T00:53:59.266Z,23.43
2018-07-22T00:56:26.218Z,23.42
2018-07-22T00:58:53.228Z,23.42
2018-07-22T01:01:20.655Z,23.40
2018-07-22T01:03:48.069Z,23.37
2018-07-22T01:06:15.090Z,23.36
2018-07-22T01:08:43.152Z,23.35
2018-07-22T01:11:10.392Z,23.35
2018-07-22T01:13:37.355Z,23.34
2018-07-22T01:16:04.705Z,23.34
2018-07-22T01:18:31.665Z,23.33
2018-07-22T01:20:58.616Z,23.35
2018-07-22T01:23:26.437Z,23.35
2018-07-22T01:25:53.402Z,23.34
2018-07-22T01:28:20.367Z,23.34
2018-07-22T01:30:47.588Z,23.34
2018-07-22T01:33:14.579Z,23.33
2018-07-22T01:35:41.532Z,23.33
2018-07-22T01:38:08.825Z,23.32
2018-07-22T01:40:35.830Z,23.33
2018-07-22T01:43:02.780Z,23.32
2018-07-22T01:45:30.159Z,23.31
2018-07-22T01:47:57.277Z,23.29
2018-07-22T01:50:24.200Z,23.28
2018-07-22T01:52:51.467Z,23.27
2018-07-22T01:55:18.536Z,23.25
2018-07-22T01:57:45.481Z,23.24
2018-07-22T02:00:12.678Z,23.22
2018-07-22T02:02:39.809Z,23.20
2018-07-22T02:05:06.758Z,23.18
2018-07-22T02:07:33.842Z,23.16
2018-07-22T02:10:00.973Z,23.15
2018-07-22T02:12:28.771Z,23.14
2018-07-22T02:14:56.007Z,23.13
2018-07-22T02:17:23.198Z,23.13
2018-07-22T02:19:50.118Z,23.11
2018-07-22T02:22:17.332Z,23.10
2018-07-22T02:24:44.539Z,23.09
2018-07-22T02:27:11.451Z,23.07
2018-07-22T02:29:38.631Z,23.05
2018-07-22T02:32:05.841Z,23.04
2018-07-22T02:34:32.798Z,23.04
2018-07-22T02:36:59.969Z,23.00
2018-07-22T02:39:27.212Z,22.99
2018-07-22T02:41:54.197Z,22.96
2018-07-22T02:44:21.366Z,22.94
2018-07-22T02:46:48.409Z,22.92
2018-07-22T02:49:15.348Z,22.91
2018-07-22T02:51:43.144Z,22.89
2018-07-22T02:54:10.331Z,22.87
2018-07-22T02:56:37.355Z,22.85
2018-07-22T02:59:05.182Z,22.85
2018-07-22T03:01:32.933Z,22.85
2018-07-22T03:04:00.013Z,22.86
2018-07-22T03:06:27.141Z,22.87
2018-07-22T03:08:54.483Z,22.88
2018-07-22T03:11:21.464Z,22.87
2018-07-22T03:13:48.940Z,22.86
2018-07-22T03:16:16.098Z,22.86
2018-07-22T03:18:43.092Z,22.86
2018-07-22T03:21:10.236Z,22.77
2018-07-22T03:23:37.445Z,22.88
2018-07-22T03:26:04.538Z,22.89
2018-07-22T03:28:31.941Z,22.92
2018-07-22T03:30:59.001Z,22.93
2018-07-22T03:33:25.960Z,22.96
2018-07-22T03:35:53.039Z,22.99
2018-07-22T03:38:20.248Z,23.00
2018-07-22T03:40:47.195Z,23.01
2018-07-22T03:43:14.409Z,23.01
2018-07-22T03:45:41.689Z,23.00
2018-07-22T03:48:08.665Z,23.00
2018-07-22T03:50:35.726Z,22.99
2018-07-22T03:53:03.048Z,23.00
2018-07-22T03:55:30.091Z,22.92
2018-07-22T03:57:57.931Z,23.03
2018-07-22T04:00:25.131Z,23.05
2018-07-22T04:02:52.122Z,23.06
2018-07-22T04:05:19.248Z,23.08
2018-07-22T04:07:46.306Z,23.08
2018-07-22T04:10:13.325Z,23.10
2018-07-22T04:12:40.516Z,23.12
2018-07-22T04:15:08.082Z,23.14
2018-07-22T04:17:35.021Z,23.17
2018-07-22T04:20:02.055Z,23.18
2018-07-22T04:22:29.335Z,23.18
2018-07-22T04:24:56.421Z,23.19
2018-07-22T04:27:23.630Z,23.20
2018-07-22T04:29:50.795Z,23.20
2018-07-22T04:32:17.733Z,23.22
2018-07-22T04:34:44.814Z,23.26
2018-07-22T04:37:12.004Z,23.27
2018-07-22T04:39:38.929Z,23.29
2018-07-22T04:42:06.208Z,23.29
2018-07-22T04:44:33.368Z,23.33
2018-07-22T04:47:01.064Z,23.36
2018-07-22T04:49:28.852Z,23.39
2018-07-22T04:51:56.625Z,23.42
2018-07-22T04:54:24.210Z,23.47
2018-07-22T04:56:52.035Z,23.52
2018-07-22T04:59:19.837Z,23.57
2018-07-22T05:01:47.378Z,23.62
2018-07-22T05:04:15.114Z,23.67
2018-07-22T05:06:42.925Z,23.70
2018-07-22T05:09:11.763Z,23.71
2018-07-22T05:11:39.622Z,23.75
2018-07-22T05:14:07.492Z,23.77
2018-07-22T05:16:35.519Z,23.79
2018-07-22T05:19:03.321Z,23.82
2018-07-22T05:21:31.222Z,23.84
2018-07-22T05:23:58.852Z,23.86
2018-07-22T05:26:26.675Z,23.86
2018-07-22T05:28:54.450Z,23.87
2018-07-22T05:31:22.029Z,23.87
2018-07-22T05:33:49.835Z,23.89
2018-07-22T05:36:17.564Z,23.89
2018-07-22T05:38:45.207Z,23.89
2018-07-22T05:41:12.946Z,23.90
2018-07-22T05:43:40.712Z,23.89
2018-07-22T05:46:08.351Z,23.90
2018-07-22T05:48:36.270Z,23.91
2018-07-22T05:51:04.033Z,23.93
2018-07-22T05:53:38.668Z,23.93
2018-07-22T05:56:06.507Z,23.95
2018-07-22T05:58:34.082Z,23.96
2018-07-22T06:01:01.818Z,23.97
2018-07-22T06:03:29.664Z,23.98
2018-07-22T06:05:57.237Z,23.99
2018-07-22T06:08:25.134Z,24.01
2018-07-22T06:10:52.918Z,24.03
2018-07-22T06:13:20.474Z,24.06
2018-07-22T06:15:48.959Z,24.07
2018-07-22T06:18:16.875Z,24.08
2018-07-22T06:20:44.434Z,24.08
2018-07-22T06:23:12.152Z,24.09
2018-07-22T06:25:39.865Z,24.11
2018-07-22T06:28:07.883Z,24.11
2018-07-22T06:30:35.632Z,24.11
2018-07-22T06:33:03.516Z,24.11
2018-07-22T06:35:31.177Z,24.11
2018-07-22T06:37:58.937Z,24.09
2018-07-22T06:40:26.618Z,24.07
2018-07-22T06:42:54.283Z,24.07
2018-07-22T06:45:22.007Z,24.08
2018-07-22T06:47:51.012Z,24.09
2018-07-22T06:50:18.708Z,24.09
2018-07-22T06:53:17.001Z,24.10
2018-07-22T06:55:44.968Z,24.07
2018-07-22T06:58:12.606Z,24.09
2018-07-22T07:00:40.408Z,24.07
2018-07-22T07:03:08.326Z,24.07
2018-07-22T07:05:35.897Z,24.06
2018-07-22T07:08:03.807Z,24.06
2018-07-22T07:10:31.915Z,24.05
2018-07-22T07:12:59.575Z,24.05
2018-07-22T07:15:27.203Z,24.04
2018-07-22T07:17:54.932Z,24.00
2018-07-22T07:20:22.697Z,23.98
2018-07-22T07:22:50.483Z,23.99
2018-07-22T07:25:18.263Z,23.97
2018-07-22T07:27:45.882Z,23.97
2018-07-22T07:30:13.662Z,23.96
2018-07-22T07:32:41.475Z,23.93
2018-07-22T07:35:09.103Z,23.93
2018-07-22T07:37:37.227Z,23.90
2018-07-22T07:40:04.940Z,23.89
2018-07-22T07:42:32.539Z,23.88
2018-07-22T07:45:00.328Z,23.87
2018-07-22T07:47:28.195Z,23.87
2018-07-22T07:49:55.812Z,23.84
2018-07-22T07:52:23.597Z,23.81
2018-07-22T07:54:51.670Z,23.80
2018-07-22T07:57:19.235Z,23.79
2018-07-22T07:59:47.209Z,23.79
2018-07-22T08:02:15.096Z,23.78
2018-07-22T08:04:42.632Z,23.77
2018-07-22T08:07:10.427Z,23.78
2018-07-22T08:09:38.222Z,23.78
2018-07-22T08:12:05.791Z,23.78
2018-07-22T08:14:33.539Z,23.77
2018-07-22T08:17:01.309Z,23.76
2018-07-22T08:19:28.835Z,23.77
2018-07-22T08:21:56.705Z,23.77
2018-07-22T08:24:24.971Z,23.77
2018-07-22T08:26:52.572Z,23.77
2018-07-22T08:29:22.818Z,23.76
2018-07-22T08:31:50.583Z,23.75
2018-07-22T08:34:18.364Z,23.77
2018-07-22T08:36:46.685Z,23.76
2018-07-22T08:39:14.608Z,23.76
2018-07-22T08:41:42.796Z,23.76
2018-07-22T08:44:10.533Z,23.75
2018-07-22T08:46:39.584Z,23.75
2018-07-22T08:49:07.263Z,23.75
2018-07-22T08:51:34.898Z,23.74
2018-07-22T08:54:02.935Z,23.72
2018-07-22T08:56:30.796Z,23.72
2018-07-22T08:58:58.637Z,23.71
2018-07-22T09:01:27.075Z,23.69
2018-07-22T09:03:54.666Z,23.67
2018-07-22T09:06:22.584Z,23.65
2018-07-22T09:08:50.334Z,23.61
2018-07-22T09:11:17.956Z,23.59
2018-07-22T09:13:45.736Z,23.49
2018-07-22T09:16:13.788Z,23.36
2018-07-22T09:18:41.381Z,23.19
2018-07-22T09:21:09.136Z,23.05
2018-07-22T09:23:37.154Z,22.96
2018-07-22T09:26:04.785Z,22.90
2018-07-22T09:28:32.607Z,22.84
2018-07-22T09:31:00.434Z,22.77
2018-07-22T09:33:28.032Z,22.69
2018-07-22T09:35:56.012Z,22.63
2018-07-22T09:38:23.631Z,22.53
2018-07-22T09:40:51.178Z,22.46
2018-07-22T09:43:18.890Z,22.42
2018-07-22T09:45:46.698Z,22.38
2018-07-22T09:48:14.324Z,22.37
2018-07-22T09:50:42.008Z,22.36
2018-07-22T09:53:09.788Z,22.36
2018-07-22T09:55:37.361Z,22.36
2018-07-22T09:58:05.166Z,22.35
2018-07-22T10:00:40.742Z,22.33
2018-07-22T10:03:08.830Z,22.31
2018-07-22T10:05:36.817Z,22.30
2018-07-22T10:08:04.409Z,22.27
2018-07-22T10:10:32.807Z,22.28
2018-07-22T10:13:00.639Z,22.23
2018-07-22T10:15:28.263Z,22.20
2018-07-22T10:17:56.023Z,22.17
2018-07-22T10:20:23.833Z,22.15
2018-07-22T10:22:51.482Z,22.12
2018-07-22T10:25:19.485Z,22.09
2018-07-22T10:27:47.426Z,22.06
2018-07-22T10:30:15.085Z,22.04
2018-07-22T10:32:42.796Z,22.03
2018-07-22T10:35:10.550Z,22.01
2018-07-22T10:37:38.212Z,22.02
2018-07-22T10:40:06.076Z,22.01
2018-07-22T10:42:33.966Z,22.01
2018-07-22T10:45:01.539Z,22.01
2018-07-22T10:47:29.373Z,21.98
2018-07-22T10:49:57.167Z,21.97
2018-07-22T10:52:24.749Z,21.95
2018-07-22T10:54:53.074Z,21.96
2018-07-22T10:57:20.800Z,21.94
2018-07-22T10:59:48.450Z,21.93
2018-07-22T11:02:16.260Z,21.94
2018-07-22T11:04:43.953Z,21.95
2018-07-22T11:07:11.538Z,21.92
2018-07-22T11:09:39.602Z,21.92
2018-07-22T11:12:07.611Z,21.91
2018-07-22T11:14:35.577Z,21.91
2018-07-22T11:17:03.351Z,21.92
2018-07-22T11:19:31.785Z,21.93
2018-07-22T11:21:59.333Z,21.93
2018-07-22T11:24:27.215Z,21.94
2018-07-22T11:26:55.263Z,21.95
2018-07-22T11:29:22.844Z,21.94
2018-07-22T11:31:50.451Z,21.93
2018-07-22T11:34:18.259Z,21.93
2018-07-22T11:36:45.815Z,21.92
2018-07-22T11:39:14.723Z,21.96
2018-07-22T11:41:42.556Z,21.97
2018-07-22T11:44:10.208Z,21.99
2018-07-22T11:46:40.935Z,22.00
2018-07-22T11:49:08.938Z,22.01
2018-07-22T11:51:37.254Z,22.03
2018-07-22T11:54:05.254Z,22.04
2018-07-22T11:56:33.010Z,22.05
2018-07-22T11:59:00.858Z,22.06
2018-07-22T12:01:28.764Z,22.07
2018-07-22T12:03:56.567Z,22.09
2018-07-22T12:06:24.308Z,22.12
2018-07-22T12:08:52.106Z,22.15
2018-07-22T12:11:19.868Z,22.16
2018-07-22T12:13:47.415Z,22.18
2018-07-22T12:16:16.097Z,22.17
2018-07-22T12:18:43.934Z,22.18
2018-07-22T12:21:11.494Z,22.18
2018-07-22T12:23:39.246Z,22.17
2018-07-22T12:26:07.071Z,22.18
2018-07-22T12:28:34.833Z,22.21
2018-07-22T12:31:02.554Z,22.22
2018-07-22T12:33:30.309Z,22.23
2018-07-22T12:35:57.834Z,22.23
2018-07-22T12:38:25.696Z,22.24
2018-07-22T12:40:53.500Z,22.24
2018-07-22T12:43:21.066Z,22.23
2018-07-22T12:45:48.783Z,22.23
2018-07-22T12:48:16.592Z,22.22
2018-07-22T12:50:44.156Z,22.25
2018-07-22T12:53:12.203Z,22.27
2018-07-22T12:55:40.038Z,22.30
2018-07-22T12:58:07.922Z,22.32
2018-07-22T13:00:35.664Z,22.34
2018-07-22T13:03:03.793Z,22.36
2018-07-22T13:05:31.404Z,22.39
2018-07-22T13:07:59.065Z,22.40
2018-07-22T13:10:26.961Z,22.40
2018-07-22T13:12:54.532Z,22.42
2018-07-22T13:15:22.339Z,22.44
2018-07-22T13:17:50.203Z,22.45
2018-07-22T13:20:17.844Z,22.45
2018-07-22T13:22:45.590Z,22.45
2018-07-22T13:25:13.294Z,22.45
2018-07-22T13:27:40.928Z,22.47
2018-07-22T13:30:09.171Z,22.49
2018-07-22T13:32:36.859Z,22.53
2018-07-22T13:35:04.726Z,22.55
2018-07-22T13:37:32.468Z,22.56
2018-07-22T13:40:00.320Z,22.57
2018-07-22T13:42:27.934Z,22.57
2018-07-22T13:44:55.828Z,22.56
2018-07-22T13:47:23.620Z,22.58
2018-07-22T13:49:51.255Z,22.59
2018-07-22T13:52:19.691Z,22.61
2018-07-22T13:54:47.535Z,22.61
2018-07-22T13:57:15.164Z,22.60
2018-07-22T13:59:42.970Z,22.61
2018-07-22T14:02:11.278Z,22.64
2018-07-22T14:04:38.954Z,22.68
2018-07-22T14:07:06.654Z,22.61
2018-07-22T14:09:34.548Z,22.72
2018-07-22T14:12:02.324Z,22.78
2018-07-22T14:14:30.173Z,22.82
2018-07-22T14:16:57.911Z,22.84
2018-07-22T14:19:25.525Z,22.86
2018-07-22T14:21:53.307Z,22.92
2018-07-22T14:24:21.159Z,22.96
2018-07-22T14:26:48.742Z,23.00
2018-07-22T14:29:16.431Z,23.04
2018-07-22T14:31:45.124Z,23.09
2018-07-22T14:34:12.708Z,23.12
2018-07-22T14:36:40.614Z,23.16
2018-07-22T14:39:09.957Z,23.18
2018-07-22T14:41:37.601Z,23.20
2018-07-22T14:44:05.428Z,23.23
2018-07-22T14:46:33.190Z,23.25
2018-07-22T14:49:01.819Z,23.24
2018-07-22T14:51:30.257Z,23.25
2018-07-22T14:53:58.209Z,23.27
2018-07-22T14:56:25.863Z,23.27
2018-07-22T14:58:54.325Z,23.29
2018-07-22T15:01:22.154Z,23.30
2018-07-22T15:03:49.743Z,23.31
2018-07-22T15:06:17.576Z,23.33
2018-07-22T15:08:45.452Z,23.35
2018-07-22T15:11:13.073Z,23.36
2018-07-22T15:13:40.986Z,23.36
2018-07-22T15:16:11.620Z,23.36
2018-07-22T15:18:39.260Z,23.37
2018-07-22T15:21:07.092Z,23.36
2018-07-22T15:23:34.867Z,23.34
2018-07-22T15:26:02.952Z,23.31
2018-07-22T15:28:31.480Z,23.31
2018-07-22T15:30:59.335Z,23.32
2018-07-22T15:33:27.124Z,23.31
2018-07-22T15:35:54.909Z,23.29
2018-07-22T15:38:22.646Z,23.30
2018-07-22T15:40:50.268Z,23.30
2018-07-22T15:43:17.953Z,23.31
2018-07-22T15:45:45.717Z,23.31
2018-07-22T15:48:13.320Z,23.32
2018-07-22T15:50:41.118Z,23.33
2018-07-22T15:53:08.890Z,23.33
2018-07-22T15:55:36.674Z,23.34
2018-07-22T15:58:04.328Z,23.36
2018-07-22T16:00:32.110Z,23.34
2018-07-22T16:02:59.735Z,23.34
2018-07-22T16:05:27.470Z,23.34
2018-07-22T16:07:55.171Z,23.34
2018-07-22T16:10:22.752Z,23.33
2018-07-22T16:12:50.441Z,23.29
2018-07-22T16:15:18.169Z,23.28
2018-07-22T16:17:45.836Z,23.28
2018-07-22T16:20:13.485Z,23.27
2018-07-22T16:22:41.234Z,23.27
2018-07-22T16:25:09.273Z,23.26
2018-07-22T16:27:36.917Z,23.26
2018-07-22T16:30:05.364Z,23.27
2018-07-22T16:32:32.909Z,23.26
2018-07-22T16:35:00.651Z,23.25
2018-07-22T16:37:28.442Z,23.25
2018-07-22T16:39:56.057Z,23.23
2018-07-22T16:42:24.428Z,23.24
2018-07-22T16:44:53.230Z,23.23
2018-07-22T16:47:21.658Z,23.23
2018-07-22T16:49:50.317Z,23.25
2018-07-22T16:52:18.160Z,23.26
2018-07-22T16:54:45.785Z,23.26
2018-07-22T16:57:13.725Z,23.25
2018-07-22T16:59:41.416Z,23.24
2018-07-22T17:02:08.981Z,23.24
2018-07-22T17:04:36.638Z,23.23
2018-07-22T17:07:04.355Z,23.23
2018-07-22T17:09:31.906Z,23.22
2018-07-22T17:11:59.642Z,23.23
2018-07-22T17:14:27.355Z,23.24
2018-07-22T17:16:55.009Z,23.25
2018-07-22T17:19:22.736Z,23.26
2018-07-22T17:21:50.424Z,23.27
2018-07-22T17:24:18.032Z,23.27
2018-07-22T17:26:45.774Z,23.26
2018-07-22T17:29:13.420Z,23.25
2018-07-22T17:31:41.007Z,23.23
2018-07-22T17:34:08.675Z,23.23
2018-07-22T17:36:36.654Z,23.19
2018-07-22T17:39:07.181Z,23.17
2018-07-22T17:41:34.796Z,23.15
2018-07-22T17:44:02.437Z,23.12
2018-07-22T17:46:29.997Z,23.11
2018-07-22T17:48:57.770Z,23.07
2018-07-22T17:51:25.446Z,23.01
2018-07-22T17:53:52.975Z,22.98
2018-07-22T17:56:20.613Z,22.95
2018-07-22T17:58:48.401Z,22.92
2018-07-22T18:01:16.063Z,22.89
2018-07-22T18:03:43.766Z,22.86
2018-07-22T18:06:11.610Z,22.84
2018-07-22T18:08:39.216Z,22.80
2018-07-22T18:11:06.939Z,22.76
2018-07-22T18:13:34.756Z,22.73
2018-07-22T18:16:02.345Z,22.71
2018-07-22T18:18:30.046Z,22.70
2018-07-22T18:20:57.780Z,22.68
2018-07-22T18:23:25.422Z,22.68
2018-07-22T18:25:53.105Z,22.65
2018-07-22T18:28:20.854Z,22.62
2018-07-22T18:30:48.450Z,22.59
2018-07-22T18:33:16.213Z,22.57
2018-07-22T18:35:43.895Z,22.56
2018-07-22T18:38:11.697Z,22.55
2018-07-22T18:40:39.367Z,22.53
2018-07-22T18:43:07.125Z,22.50
2018-07-22T18:45:34.753Z,22.47
2018-07-22T18:48:02.540Z,22.44
2018-07-22T18:50:30.383Z,22.42
2018-07-22T18:52:58.760Z,22.43
2018-07-22T18:55:26.574Z,22.40
2018-07-22T18:57:54.355Z,22.36
2018-07-22T19:00:22.054Z,22.33
2018-07-22T19:02:49.873Z,22.31
2018-07-22T19:05:17.608Z,22.28
2018-07-22T19:07:45.246Z,22.27
2018-07-22T19:10:13.028Z,22.25
2018-07-22T19:12:40.780Z,22.22
2018-07-22T19:15:08.481Z,22.19
2018-07-22T19:17:36.372Z,22.17
2018-07-22T19:20:04.332Z,22.15
2018-07-22T19:22:32.041Z,22.12
2018-07-22T19:24:59.710Z,22.06
2018-07-22T19:27:27.399Z,22.02
2018-07-22T19:29:55.040Z,22.00
2018-07-22T19:32:22.845Z,21.98
2018-07-22T19:34:50.693Z,21.97
2018-07-22T19:37:18.316Z,21.97
2018-07-22T19:39:46.142Z,21.97
2018-07-22T19:42:14.011Z,21.96
2018-07-22T19:44:41.656Z,21.93
2018-07-22T19:47:09.469Z,21.92
2018-07-22T19:49:37.222Z,21.91
2018-07-22T19:52:04.877Z,21.89
2018-07-22T19:54:32.577Z,21.88
2018-07-22T19:57:00.454Z,21.85
2018-07-22T19:59:28.081Z,21.81
2018-07-22T20:01:55.940Z,21.78
2018-07-22T20:04:24.042Z,21.77
2018-07-22T20:06:51.688Z,21.75
2018-07-22T20:09:19.550Z,21.73
2018-07-22T20:11:47.381Z,21.72
2018-07-22T20:14:15.051Z,21.71
2018-07-22T20:16:42.829Z,21.69
2018-07-22T20:19:10.811Z,21.68
2018-07-22T20:21:38.454Z,21.67
2018-07-22T20:24:06.347Z,21.67
2018-07-22T20:26:34.172Z,21.67
2018-07-22T20:29:01.811Z,21.66
2018-07-22T20:31:29.661Z,21.66
2018-07-22T20:33:57.497Z,21.65
2018-07-22T20:36:25.140Z,21.66
2018-07-22T20:38:52.964Z,21.68
2018-07-22T20:41:21.073Z,21.65
2018-07-22T20:43:48.708Z,21.63
2018-07-22T20:46:16.428Z,21.63
2018-07-22T20:48:44.244Z,21.62
2018-07-22T20:51:11.852Z,21.61
2018-07-22T20:53:39.521Z,21.60
2018-07-22T20:56:07.348Z,21.61
2018-07-22T20:58:35.618Z,21.60
2018-07-22T21:01:03.396Z,21.60
2018-07-22T21:03:31.156Z,21.58
2018-07-22T21:05:58.744Z,21.57
2018-07-22T21:08:26.541Z,21.55
2018-07-22T21:10:54.472Z,21.54
2018-07-22T21:13:23.352Z,21.52
2018-07-22T21:15:51.108Z,21.50
2018-07-22T21:18:18.933Z,21.49
2018-07-22T21:20:46.584Z,21.45
2018-07-22T21:23:14.328Z,21.43
2018-07-22T21:25:42.171Z,21.40
2018-07-22T21:28:09.800Z,21.38
2018-07-22T21:30:37.581Z,21.35
2018-07-22T21:33:05.506Z,21.33
2018-07-22T21:35:33.164Z,21.31
2018-07-22T21:38:00.962Z,21.30
2018-07-22T21:40:28.992Z,21.28
2018-07-22T21:42:56.788Z,21.25
2018-07-22T21:45:24.648Z,21.24
2018-07-22T21:47:52.420Z,21.23
2018-07-22T21:50:20.026Z,21.22
2018-07-22T21:52:47.977Z,21.21
2018-07-22T21:55:15.905Z,21.18
2018-07-22T21:57:43.454Z,21.17
2018-07-22T22:00:31.965Z,21.15
2018-07-22T22:03:00.763Z,21.12
2018-07-22T22:05:28.692Z,21.10
2018-07-22T22:07:56.371Z,21.08
2018-07-22T22:10:24.494Z,21.06
2018-07-22T22:12:52.630Z,21.04
2018-07-22T22:15:23.253Z,21.02
2018-07-22T22:17:51.180Z,21.01
2018-07-22T22:20:19.076Z,20.98
2018-07-22T22:22:46.792Z,20.96
2018-07-22T22:25:14.726Z,20.94
2018-07-22T22:27:42.433Z,20.93
2018-07-22T22:30:10.601Z,20.91
2018-07-22T22:32:38.580Z,20.89
2018-07-22T22:35:06.728Z,20.87
2018-07-22T22:37:34.400Z,20.87
2018-07-22T22:40:02.202Z,20.84
2018-07-22T22:42:30.107Z,20.82
2018-07-22T22:44:57.992Z,20.78
2018-07-22T22:47:25.764Z,20.76
2018-07-22T22:49:53.473Z,20.74
2018-07-22T22:52:21.108Z,20.72
2018-07-22T22:54:48.920Z,20.70
2018-07-22T22:57:16.943Z,20.68
2018-07-22T22:59:44.573Z,20.65
2018-07-22T23:02:12.392Z,20.62
2018-07-22T23:04:40.266Z,20.58
2018-07-22T23:07:08.450Z,20.58
2018-07-22T23:09:36.225Z,20.57
2018-07-22T23:12:04.174Z,20.56
2018-07-22T23:14:32.571Z,20.55
2018-07-22T23:17:00.403Z,20.44
2018-07-22T23:19:28.238Z,20.53
2018-07-22T23:21:55.902Z,20.51
2018-07-22T23:24:23.697Z,20.49
2018-07-22T23:26:51.523Z,20.48
2018-07-22T23:29:19.146Z,20.47
2018-07-22T23:31:47.018Z,20.47
2018-07-22T23:34:14.895Z,20.46
2018-07-22T23:36:42.582Z,20.47
2018-07-22T23:39:10.450Z,20.47
2018-07-22T23:41:38.254Z,20.46
2018-07-22T23:44:06.035Z,20.45
2018-07-22T23:46:34.194Z,20.43
2018-07-22T23:49:03.017Z,20.42
2018-07-22T23:51:30.741Z,20.42
2018-07-22T23:53:58.557Z,20.42
2018-07-22T23:56:26.530Z,20.42
2018-07-22T23:58:55.015Z,20.41
